sensor_id;sensor_type;location;lat;lon;timestamp;pressure;altitude;pressure_sealevel;temperature;humidity
75794;BME280;64418;47.536;19.074;2024-01-15T00:00:19;99149.78;;;-1.59;100.00
75794;BME280;64418;47.536;19.074;2024-01-15T00:02:46;99145.13;;;-1.57;100.00
75794;BME280;64418;47.536;19.074;2024-01-15T00:05:15;99139.50;;;-1.54;100.00
75794;BME280;64418;47.536;19.074;2024-01-15T00:07:42;99122.22;;;-1.58;100.00
75794;BME280;64418;47.536;19.074;2024-01-15T00:10:08;99133.88;;;-1.51;100.00
75794;BME280;64418;47.536;19.074;2024-01-15T00:12:34;99140.22;;;-1.44;100.00
75794;BME280;64418;47.536;19.074;2024-01-15T00:15:01;99143.53;;;-1.42;100.00
75794;BME280;64418;47.536;19.074;2024-01-15T00:17:27;99071.87;;;-1.76;100.00
75794;BME280;64418;47.536;19.074;2024-01-15T00:19:54;99128.09;;;-1.38;100.00
75794;BME280;64418;47.536;19.074;2024-01-15T00:22:35;99128.09;;;-1.38;100.00
75794;BME280;64418;47.536;19.074;2024-01-15T00:25:09;99034.88;;;-1.77;100.00
75794;BME280;64418;47.536;19.074;2024-01-15T00:27:37;99101.53;;;-1.38;100.00
75794;BME280;64418;47.536;19.074;2024-01-15T00:30:04;99091.75;;;-1.38;100.00
75794;BME280;64418;47.536;19.074;2024-01-15T00:32:31;99086.78;;;-1.41;100.00
75794;BME280;64418;47.536;19.074;2024-01-15T00:35:00;99080.78;;;-1.43;100.00
75794;BME280;64418;47.536;19.074;2024-01-15T00:37:37;99078.81;;;-1.41;100.00
75794;BME280;64418;47.536;19.074;2024-01-15T00:40:05;99078.81;;;-1.41;100.00
75794;BME280;64418;47.536;19.074;2024-01-15T00:42:32;99081.13;;;-1.38;100.00
75794;BME280;64418;47.536;19.074;2024-01-15T00:44:58;99084.13;;;-1.33;100.00
75794;BME280;64418;47.536;19.074;2024-01-15T00:47:27;99032.78;;;-1.58;100.00
75794;BME280;64418;47.536;19.074;2024-01-15T00:49:56;99081.50;;;-1.25;100.00
75794;BME280;64418;47.536;19.074;2024-01-15T00:52:22;99078.53;;;-1.14;100.00
75794;BME280;64418;47.536;19.074;2024-01-15T00:55:01;99077.84;;;-1.08;100.00
75794;BME280;64418;47.536;19.074;2024-01-15T00:57:28;99073.88;;;-1.04;100.00
75794;BME280;64418;47.536;19.074;2024-01-15T00:59:55;99074.38;;;-1.08;100.00
75794;BME280;64418;47.536;19.074;2024-01-15T01:02:25;99064.75;;;-1.17;100.00
75794;BME280;64418;47.536;19.074;2024-01-15T01:04:53;99065.41;;;-1.15;100.00
75794;BME280;64418;47.536;19.074;2024-01-15T01:07:19;99062.59;;;-1.14;100.00
75794;BME280;64418;47.536;19.074;2024-01-15T01:09:46;99069.53;;;-1.13;100.00
75794;BME280;64418;47.536;19.074;2024-01-15T01:12:15;99053.59;;;-1.13;100.00
75794;BME280;64418;47.536;19.074;2024-01-15T01:14:44;99035.66;;;-1.27;100.00
75794;BME280;64418;47.536;19.074;2024-01-15T01:17:11;99043.66;;;-1.19;100.00
75794;BME280;64418;47.536;19.074;2024-01-15T01:19:37;99037.66;;;-1.21;100.00
75794;BME280;64418;47.536;19.074;2024-01-15T01:22:03;99035.31;;;-1.24;100.00
75794;BME280;64418;47.536;19.074;2024-01-15T01:24:30;99040.97;;;-1.27;100.00
75794;BME280;64418;47.536;19.074;2024-01-15T01:26:57;99040.13;;;-1.27;100.00
75794;BME280;64418;47.536;19.074;2024-01-15T01:29:30;99022.53;;;-1.28;100.00
75794;BME280;64418;47.536;19.074;2024-01-15T01:31:56;99028.19;;;-1.31;100.00
75794;BME280;64418;47.536;19.074;2024-01-15T01:34:23;98969.56;;;-1.70;100.00
75794;BME280;64418;47.536;19.074;2024-01-15T01:36:53;99020.69;;;-1.36;100.00
75794;BME280;64418;47.536;19.074;2024-01-15T01:39:20;99017.87;;;-1.34;100.00
75794;BME280;64418;47.536;19.074;2024-01-15T01:41:47;99014.41;;;-1.35;100.00
75794;BME280;64418;47.536;19.074;2024-01-15T01:44:13;99005.78;;;-1.37;100.00
75794;BME280;64418;47.536;19.074;2024-01-15T01:46:44;99003.75;;;-1.43;100.00
75794;BME280;64418;47.536;19.074;2024-01-15T01:49:10;98991.81;;;-1.47;100.00
75794;BME280;64418;47.536;19.074;2024-01-15T01:51:39;98992.47;;;-1.53;100.00
75794;BME280;64418;47.536;19.074;2024-01-15T01:54:07;98983.34;;;-1.59;100.00
75794;BME280;64418;47.536;19.074;2024-01-15T01:56:34;98957.25;;;-1.79;100.00
75794;BME280;64418;47.536;19.074;2024-01-15T01:59:04;98993.28;;;-1.69;100.00
75794;BME280;64418;47.536;19.074;2024-01-15T02:01:34;98969.72;;;-1.72;100.00
75794;BME280;64418;47.536;19.074;2024-01-15T02:04:04;98971.03;;;-1.76;100.00
75794;BME280;64418;47.536;19.074;2024-01-15T02:06:30;98987.44;;;-1.80;100.00
75794;BME280;64418;47.536;19.074;2024-01-15T02:08:56;98974.81;;;-1.86;100.00
75794;BME280;64418;47.536;19.074;2024-01-15T02:11:22;98973.97;;;-1.95;100.00
75794;BME280;64418;47.536;19.074;2024-01-15T02:13:54;98955.22;;;-2.02;100.00
75794;BME280;64418;47.536;19.074;2024-01-15T02:16:21;98960.47;;;-2.18;100.00
75794;BME280;64418;47.536;19.074;2024-01-15T02:18:47;98961.94;;;-2.23;100.00
75794;BME280;64418;47.536;19.074;2024-01-15T02:21:17;98962.41;;;-2.28;100.00
75794;BME280;64418;47.536;19.074;2024-01-15T02:23:49;98961.06;;;-2.32;100.00
75794;BME280;64418;47.536;19.074;2024-01-15T02:26:16;98977.94;;;-2.41;100.00
75794;BME280;64418;47.536;19.074;2024-01-15T02:28:43;98969.03;;;-2.32;100.00
75794;BME280;64418;47.536;19.074;2024-01-15T02:31:09;98987.28;;;-2.29;100.00
75794;BME280;64418;47.536;19.074;2024-01-15T02:33:36;98925.16;;;-2.60;100.00
75794;BME280;64418;47.536;19.074;2024-01-15T02:36:02;98966.06;;;-2.29;100.00
75794;BME280;64418;47.536;19.074;2024-01-15T02:38:29;98923.41;;;-2.44;100.00
75794;BME280;64418;47.536;19.074;2024-01-15T02:41:00;98941.25;;;-2.20;100.00
75794;BME280;64418;47.536;19.074;2024-01-15T02:43:26;98932.25;;;-2.35;100.00
75794;BME280;64418;47.536;19.074;2024-01-15T02:45:54;98937.56;;;-2.19;100.00
75794;BME280;64418;47.536;19.074;2024-01-15T02:48:23;98931.75;;;-2.22;100.00
75794;BME280;64418;47.536;19.074;2024-01-15T02:50:50;98946.84;;;-2.31;100.00
75794;BME280;64418;47.536;19.074;2024-01-15T02:53:17;98950.94;;;-2.36;100.00
75794;BME280;64418;47.536;19.074;2024-01-15T02:55:43;98948.41;;;-2.54;100.00
75794;BME280;64418;47.536;19.074;2024-01-15T02:58:12;98941.41;;;-2.55;100.00
75794;BME280;64418;47.536;19.074;2024-01-15T03:00:38;98941.87;;;-2.60;100.00
75794;BME280;64418;47.536;19.074;2024-01-15T03:03:04;98917.75;;;-2.82;100.00
75794;BME280;64418;47.536;19.074;2024-01-15T03:05:31;98939.19;;;-2.76;100.00
75794;BME280;64418;47.536;19.074;2024-01-15T03:07:57;98927.81;;;-2.60;100.00
75794;BME280;64418;47.536;19.074;2024-01-15T03:10:24;98921.19;;;-2.56;100.00
75794;BME280;64418;47.536;19.074;2024-01-15T03:12:50;98925.44;;;-2.71;100.00
75794;BME280;64418;47.536;19.074;2024-01-15T03:15:18;98917.53;;;-2.63;100.00
75794;BME280;64418;47.536;19.074;2024-01-15T03:17:45;98832.78;;;-2.89;100.00
75794;BME280;64418;47.536;19.074;2024-01-15T03:20:12;98887.75;;;-2.49;100.00
75794;BME280;64418;47.536;19.074;2024-01-15T03:22:38;98908.97;;;-2.49;100.00
75794;BME280;64418;47.536;19.074;2024-01-15T03:25:09;98845.25;;;-2.81;100.00
75794;BME280;64418;47.536;19.074;2024-01-15T03:27:35;98888.72;;;-2.58;100.00
75794;BME280;64418;47.536;19.074;2024-01-15T03:30:02;98890.31;;;-2.73;100.00
75794;BME280;64418;47.536;19.074;2024-01-15T03:32:33;98841.94;;;-3.17;100.00
75794;BME280;64418;47.536;19.074;2024-01-15T03:34:59;98890.19;;;-2.98;100.00
75794;BME280;64418;47.536;19.074;2024-01-15T03:37:26;98900.47;;;-2.95;100.00
75794;BME280;64418;47.536;19.074;2024-01-15T03:39:52;98928.69;;;-2.85;100.00
75794;BME280;64418;47.536;19.074;2024-01-15T03:42:18;98893.88;;;-2.91;100.00
75794;BME280;64418;47.536;19.074;2024-01-15T03:44:45;98919.28;;;-2.80;100.00
75794;BME280;64418;47.536;19.074;2024-01-15T03:47:13;98935.38;;;-2.73;100.00
75794;BME280;64418;47.536;19.074;2024-01-15T03:49:43;98923.66;;;-2.63;100.00
75794;BME280;64418;47.536;19.074;2024-01-15T03:52:09;98946.84;;;-2.65;100.00
75794;BME280;64418;47.536;19.074;2024-01-15T03:54:35;98930.72;;;-2.71;100.00
75794;BME280;64418;47.536;19.074;2024-01-15T03:57:02;98921.81;;;-2.70;100.00
75794;BME280;64418;47.536;19.074;2024-01-15T03:59:28;98921.47;;;-2.67;100.00
75794;BME280;64418;47.536;19.074;2024-01-15T04:01:54;98936.72;;;-2.69;100.00
75794;BME280;64418;47.536;19.074;2024-01-15T04:04:21;98884.56;;;-3.03;100.00
75794;BME280;64418;47.536;19.074;2024-01-15T04:06:53;98907.91;;;-2.98;100.00
75794;BME280;64418;47.536;19.074;2024-01-15T04:09:19;98922.62;;;-3.04;100.00
75794;BME280;64418;47.536;19.074;2024-01-15T04:11:45;98909.47;;;-3.13;100.00
75794;BME280;64418;47.536;19.074;2024-01-15T04:14:11;98906.66;;;-3.12;100.00
75794;BME280;64418;47.536;19.074;2024-01-15T04:16:37;98894.63;;;-3.06;100.00
75794;BME280;64418;47.536;19.074;2024-01-15T04:19:03;98890.97;;;-3.05;100.00
75794;BME280;64418;47.536;19.074;2024-01-15T04:21:29;98891.09;;;-3.15;100.00
75794;BME280;64418;47.536;19.074;2024-01-15T04:23:57;98883.53;;;-3.10;100.00
75794;BME280;64418;47.536;19.074;2024-01-15T04:26:23;98878.13;;;-3.26;100.00
75794;BME280;64418;47.536;19.074;2024-01-15T04:28:50;98874.50;;;-3.25;100.00
75794;BME280;64418;47.536;19.074;2024-01-15T04:31:26;98883.41;;;-3.26;100.00
75794;BME280;64418;47.536;19.074;2024-01-15T04:33:54;98871.72;;;-3.41;100.00
75794;BME280;64418;47.536;19.074;2024-01-15T04:36:21;98865.75;;;-3.43;100.00
75794;BME280;64418;47.536;19.074;2024-01-15T04:38:48;98867.09;;;-3.39;100.00
75794;BME280;64418;47.536;19.074;2024-01-15T04:41:16;98852.47;;;-3.25;100.00
75794;BME280;64418;47.536;19.074;2024-01-15T04:43:43;98874.19;;;-3.22;100.00
75794;BME280;64418;47.536;19.074;2024-01-15T04:46:09;98868.66;;;-3.28;100.00
75794;BME280;64418;47.536;19.074;2024-01-15T04:48:37;98881.59;;;-3.25;100.00
75794;BME280;64418;47.536;19.074;2024-01-15T04:51:04;98868.31;;;-3.33;100.00
75794;BME280;64418;47.536;19.074;2024-01-15T04:53:34;98785.72;;;-3.89;100.00
75794;BME280;64418;47.536;19.074;2024-01-15T04:56:01;98857.53;;;-3.40;100.00
75794;BME280;64418;47.536;19.074;2024-01-15T04:58:32;98862.25;;;-3.52;100.00
75794;BME280;64418;47.536;19.074;2024-01-15T05:00:58;98866.37;;;-3.49;100.00
75794;BME280;64418;47.536;19.074;2024-01-15T05:03:27;98872.56;;;-3.41;100.00
75794;BME280;64418;47.536;19.074;2024-01-15T05:05:53;98873.22;;;-3.38;100.00
75794;BME280;64418;47.536;19.074;2024-01-15T05:08:19;98865.50;;;-3.32;100.00
75794;BME280;64418;47.536;19.074;2024-01-15T05:10:48;98884.03;;;-3.32;100.00
75794;BME280;64418;47.536;19.074;2024-01-15T05:13:17;98882.66;;;-3.36;100.00
75794;BME280;64418;47.536;19.074;2024-01-15T05:15:51;98873.75;;;-3.35;100.00
75794;BME280;64418;47.536;19.074;2024-01-15T05:18:22;98870.47;;;-3.55;100.00
75794;BME280;64418;47.536;19.074;2024-01-15T05:20:50;98899.12;;;-3.50;100.00
75794;BME280;64418;47.536;19.074;2024-01-15T05:23:17;98896.84;;;-3.45;100.00
75794;BME280;64418;47.536;19.074;2024-01-15T05:25:43;98828.16;;;-3.72;100.00
75794;BME280;64418;47.536;19.074;2024-01-15T05:28:09;98880.72;;;-3.34;100.00
75794;BME280;64418;47.536;19.074;2024-01-15T05:30:36;98889.94;;;-3.38;100.00
75794;BME280;64418;47.536;19.074;2024-01-15T05:33:09;98886.31;;;-3.37;100.00
75794;BME280;64418;47.536;19.074;2024-01-15T05:35:37;98881.03;;;-3.37;100.00
75794;BME280;64418;47.536;19.074;2024-01-15T05:38:03;98884.66;;;-3.38;100.00
75794;BME280;64418;47.536;19.074;2024-01-15T05:40:30;98840.75;;;-3.74;100.00
75794;BME280;64418;47.536;19.074;2024-01-15T05:42:56;98883.69;;;-3.37;100.00
75794;BME280;64418;47.536;19.074;2024-01-15T05:45:22;98885.63;;;-3.39;100.00
75794;BME280;64418;47.536;19.074;2024-01-15T05:47:48;98887.25;;;-3.46;100.00
75794;BME280;64418;47.536;19.074;2024-01-15T05:50:21;98894.34;;;-3.47;100.00
75794;BME280;64418;47.536;19.074;2024-01-15T05:52:48;98904.47;;;-3.42;100.00
75794;BME280;64418;47.536;19.074;2024-01-15T05:55:29;98890.25;;;-3.41;100.00
75794;BME280;64418;47.536;19.074;2024-01-15T05:57:56;98838.75;;;-3.72;100.00
75794;BME280;64418;47.536;19.074;2024-01-15T06:00:22;98891.38;;;-3.26;100.00
75794;BME280;64418;47.536;19.074;2024-01-15T06:02:48;98833.06;;;-3.60;100.00
75794;BME280;64418;47.536;19.074;2024-01-15T06:05:22;98806.34;;;-3.74;100.00
75794;BME280;64418;47.536;19.074;2024-01-15T06:07:48;98872.87;;;-3.18;100.00
75794;BME280;64418;47.536;19.074;2024-01-15T06:10:14;98866.84;;;-3.28;100.00
75794;BME280;64418;47.536;19.074;2024-01-15T06:12:42;98870.12;;;-3.34;100.00
75794;BME280;64418;47.536;19.074;2024-01-15T06:15:09;98870.84;;;-3.24;100.00
75794;BME280;64418;47.536;19.074;2024-01-15T06:17:35;98857.97;;;-3.19;100.00
75794;BME280;64418;47.536;19.074;2024-01-15T06:20:01;98868.09;;;-3.14;100.00
75794;BME280;64418;47.536;19.074;2024-01-15T06:22:28;98879.53;;;-3.06;100.00
75794;BME280;64418;47.536;19.074;2024-01-15T06:24:54;98870.22;;;-3.18;100.00
75794;BME280;64418;47.536;19.074;2024-01-15T06:27:21;98875.00;;;-2.96;100.00
75794;BME280;64418;47.536;19.074;2024-01-15T06:29:47;98878.00;;;-2.82;100.00
75794;BME280;64418;47.536;19.074;2024-01-15T06:32:13;98872.91;;;-2.84;100.00
75794;BME280;64418;47.536;19.074;2024-01-15T06:34:39;98869.41;;;-2.84;100.00
75794;BME280;64418;47.536;19.074;2024-01-15T06:37:05;98876.38;;;-2.83;100.00
75794;BME280;64418;47.536;19.074;2024-01-15T06:39:33;98879.31;;;-2.86;100.00
75794;BME280;64418;47.536;19.074;2024-01-15T06:42:03;98867.75;;;-2.85;100.00
75794;BME280;64418;47.536;19.074;2024-01-15T06:44:32;98884.34;;;-2.75;100.00
75794;BME280;64418;47.536;19.074;2024-01-15T06:46:58;98872.37;;;-2.87;100.00
75794;BME280;64418;47.536;19.074;2024-01-15T06:49:24;98892.00;;;-2.72;100.00
75794;BME280;64418;47.536;19.074;2024-01-15T06:51:50;98899.44;;;-2.68;100.00
75794;BME280;64418;47.536;19.074;2024-01-15T06:54:16;98883.09;;;-2.55;100.00
75794;BME280;64418;47.536;19.074;2024-01-15T06:56:51;98883.47;;;-2.50;100.00
75794;BME280;64418;47.536;19.074;2024-01-15T06:59:17;98874.50;;;-2.49;100.00
75794;BME280;64418;47.536;19.074;2024-01-15T07:01:43;98872.53;;;-2.47;100.00
75794;BME280;64418;47.536;19.074;2024-01-15T07:04:09;98882.34;;;-2.39;100.00
75794;BME280;64418;47.536;19.074;2024-01-15T07:06:34;98879.06;;;-2.25;100.00
75794;BME280;64418;47.536;19.074;2024-01-15T07:09:00;98877.59;;;-2.20;100.00
75794;BME280;64418;47.536;19.074;2024-01-15T07:11:26;98886.53;;;-2.21;100.00
75794;BME280;64418;47.536;19.074;2024-01-15T07:13:53;98885.22;;;-2.09;100.00
75794;BME280;64418;47.536;19.074;2024-01-15T07:16:19;98875.59;;;-2.10;100.00
75794;BME280;64418;47.536;19.074;2024-01-15T07:18:45;98885.22;;;-2.09;100.00
75794;BME280;64418;47.536;19.074;2024-01-15T07:21:11;98889.03;;;-2.03;100.00
75794;BME280;64418;47.536;19.074;2024-01-15T07:23:37;98898.53;;;-2.01;100.00
75794;BME280;64418;47.536;19.074;2024-01-15T07:26:06;98883.91;;;-2.13;100.00
75794;BME280;64418;47.536;19.074;2024-01-15T07:28:32;98904.09;;;-2.20;100.00
75794;BME280;64418;47.536;19.074;2024-01-15T07:31:00;98897.13;;;-2.21;100.00
75794;BME280;64418;47.536;19.074;2024-01-15T07:33:26;98910.03;;;-2.26;100.00
75794;BME280;64418;47.536;19.074;2024-01-15T07:35:52;98900.78;;;-2.22;100.00
75794;BME280;64418;47.536;19.074;2024-01-15T07:38:17;98908.41;;;-2.27;100.00
75794;BME280;64418;47.536;19.074;2024-01-15T07:40:43;98908.41;;;-2.11;100.00
75794;BME280;64418;47.536;19.074;2024-01-15T07:43:10;98913.38;;;-2.24;100.00
75794;BME280;64418;47.536;19.074;2024-01-15T07:45:35;98923.66;;;-2.21;100.00
75794;BME280;64418;47.536;19.074;2024-01-15T07:48:04;98923.97;;;-2.24;100.00
75794;BME280;64418;47.536;19.074;2024-01-15T07:50:30;98933.94;;;-2.18;100.00
75794;BME280;64418;47.536;19.074;2024-01-15T07:52:56;98936.78;;;-2.19;100.00
75794;BME280;64418;47.536;19.074;2024-01-15T07:55:22;98935.94;;;-2.20;100.00
75794;BME280;64418;47.536;19.074;2024-01-15T07:57:48;98939.13;;;-2.08;100.00
75794;BME280;64418;47.536;19.074;2024-01-15T08:00:14;98919.25;;;-2.04;100.00
75794;BME280;64418;47.536;19.074;2024-01-15T08:02:40;98923.72;;;-1.88;100.00
75794;BME280;64418;47.536;19.074;2024-01-15T08:05:08;98914.62;;;-1.21;100.00
75794;BME280;64418;47.536;19.074;2024-01-15T08:07:34;98911.03;;;-0.73;100.00
75794;BME280;64418;47.536;19.074;2024-01-15T08:09:59;98902.22;;;-0.27;100.00
75794;BME280;64418;47.536;19.074;2024-01-15T08:12:25;98903.25;;;0.26;100.00
75794;BME280;64418;47.536;19.074;2024-01-15T08:14:51;98911.50;;;0.91;100.00
75794;BME280;64418;47.536;19.074;2024-01-15T08:17:17;98926.28;;;1.31;100.00
75794;BME280;64418;47.536;19.074;2024-01-15T08:19:44;98918.19;;;1.68;100.00
75794;BME280;64418;47.536;19.074;2024-01-15T08:22:11;98933.44;;;1.74;100.00
75794;BME280;64418;47.536;19.074;2024-01-15T08:24:37;98923.41;;;1.91;100.00
75794;BME280;64418;47.536;19.074;2024-01-15T08:27:04;98916.53;;;2.39;100.00
75794;BME280;64418;47.536;19.074;2024-01-15T08:29:30;98929.13;;;2.24;100.00
75794;BME280;64418;47.536;19.074;2024-01-15T08:31:56;98924.13;;;2.57;100.00
75794;BME280;64418;47.536;19.074;2024-01-15T08:34:24;98921.94;;;2.88;100.00
75794;BME280;64418;47.536;19.074;2024-01-15T08:36:50;98920.72;;;2.90;100.00
75794;BME280;64418;47.536;19.074;2024-01-15T08:39:17;98932.06;;;2.92;100.00
75794;BME280;64418;47.536;19.074;2024-01-15T08:41:47;98928.00;;;2.75;100.00
75794;BME280;64418;47.536;19.074;2024-01-15T08:44:14;98927.00;;;3.66;97.37
75794;BME280;64418;47.536;19.074;2024-01-15T08:46:40;98918.09;;;3.25;94.57
75794;BME280;64418;47.536;19.074;2024-01-15T08:49:06;98922.62;;;2.97;94.04
75794;BME280;64418;47.536;19.074;2024-01-15T08:51:33;98925.41;;;3.44;92.82
75794;BME280;64418;47.536;19.074;2024-01-15T08:53:59;98934.25;;;3.38;90.97
75794;BME280;64418;47.536;19.074;2024-01-15T08:56:26;98928.94;;;3.45;87.09
75794;BME280;64418;47.536;19.074;2024-01-15T08:58:52;98940.87;;;3.76;86.25
75794;BME280;64418;47.536;19.074;2024-01-15T09:01:18;98931.00;;;3.43;85.41
75794;BME280;64418;47.536;19.074;2024-01-15T09:03:44;98927.59;;;4.03;82.24
75794;BME280;64418;47.536;19.074;2024-01-15T09:06:10;98931.28;;;4.02;84.03
75794;BME280;64418;47.536;19.074;2024-01-15T09:08:37;98931.59;;;4.33;81.82
75794;BME280;64418;47.536;19.074;2024-01-15T09:11:03;98928.03;;;4.13;79.89
75794;BME280;64418;47.536;19.074;2024-01-15T09:13:32;98937.38;;;4.30;79.74
75794;BME280;64418;47.536;19.074;2024-01-15T09:15:59;98914.59;;;4.87;74.33
75794;BME280;64418;47.536;19.074;2024-01-15T09:18:25;98940.53;;;5.58;71.42
75794;BME280;64418;47.536;19.074;2024-01-15T09:20:51;98924.47;;;5.19;70.25
75794;BME280;64418;47.536;19.074;2024-01-15T09:23:17;98929.88;;;6.47;65.86
75794;BME280;64418;47.536;19.074;2024-01-15T09:25:43;98936.03;;;5.39;64.91
75794;BME280;64418;47.536;19.074;2024-01-15T09:28:10;98936.19;;;5.64;65.11
75794;BME280;64418;47.536;19.074;2024-01-15T09:30:38;98919.06;;;4.53;66.07
75794;BME280;64418;47.536;19.074;2024-01-15T09:33:04;98911.63;;;4.42;67.05
75794;BME280;64418;47.536;19.074;2024-01-15T09:35:30;98904.06;;;4.78;67.54
75794;BME280;64418;47.536;19.074;2024-01-15T09:37:56;98913.34;;;4.82;65.48
75794;BME280;64418;47.536;19.074;2024-01-15T09:40:24;98914.09;;;5.49;63.50
75794;BME280;64418;47.536;19.074;2024-01-15T09:42:54;98911.81;;;5.52;63.37
75794;BME280;64418;47.536;19.074;2024-01-15T09:45:21;98899.84;;;6.19;60.34
75794;BME280;64418;47.536;19.074;2024-01-15T09:47:48;98904.88;;;6.02;59.70
75794;BME280;64418;47.536;19.074;2024-01-15T09:50:14;98894.03;;;6.22;59.31
75794;BME280;64418;47.536;19.074;2024-01-15T09:52:41;98897.53;;;5.65;60.19
75794;BME280;64418;47.536;19.074;2024-01-15T09:55:09;98887.25;;;6.51;60.94
75794;BME280;64418;47.536;19.074;2024-01-15T09:57:36;98871.16;;;5.42;60.63
75794;BME280;64418;47.536;19.074;2024-01-15T10:00:03;98882.94;;;5.34;61.36
75794;BME280;64418;47.536;19.074;2024-01-15T10:02:31;98878.19;;;5.30;59.98
75794;BME280;64418;47.536;19.074;2024-01-15T10:04:58;98876.38;;;5.24;62.13
75794;BME280;64418;47.536;19.074;2024-01-15T10:07:26;98876.19;;;4.93;61.55
75794;BME280;64418;47.536;19.074;2024-01-15T10:09:54;98857.44;;;5.63;59.81
75794;BME280;64418;47.536;19.074;2024-01-15T10:12:20;98867.50;;;5.04;60.76
75794;BME280;64418;47.536;19.074;2024-01-15T10:14:47;98859.75;;;5.53;59.43
75794;BME280;64418;47.536;19.074;2024-01-15T10:17:13;98849.94;;;5.85;59.01
75794;BME280;64418;47.536;19.074;2024-01-15T10:19:39;98855.50;;;6.28;57.67
75794;BME280;64418;47.536;19.074;2024-01-15T10:22:07;98866.06;;;5.92;56.78
75794;BME280;64418;47.536;19.074;2024-01-15T10:24:33;98849.91;;;5.98;56.95
75794;BME280;64418;47.536;19.074;2024-01-15T10:27:08;98846.03;;;6.25;56.01
75794;BME280;64418;47.536;19.074;2024-01-15T10:29:36;98843.37;;;6.50;54.97
75794;BME280;64418;47.536;19.074;2024-01-15T10:32:03;98844.31;;;7.30;52.69
75794;BME280;64418;47.536;19.074;2024-01-15T10:34:30;98838.06;;;7.36;52.76
75794;BME280;64418;47.536;19.074;2024-01-15T10:36:56;98832.38;;;7.62;51.50
75794;BME280;64418;47.536;19.074;2024-01-15T10:39:25;98828.00;;;6.57;53.43
75794;BME280;64418;47.536;19.074;2024-01-15T10:41:51;98834.50;;;6.74;52.34
75794;BME280;64418;47.536;19.074;2024-01-15T10:44:17;98823.25;;;6.28;53.29
75794;BME280;64418;47.536;19.074;2024-01-15T10:46:44;98830.78;;;6.13;54.36
75794;BME280;64418;47.536;19.074;2024-01-15T10:49:11;98837.72;;;6.27;54.32
75794;BME280;64418;47.536;19.074;2024-01-15T10:51:38;98843.09;;;6.27;54.93
75794;BME280;64418;47.536;19.074;2024-01-15T10:54:04;98833.31;;;6.08;56.22
75794;BME280;64418;47.536;19.074;2024-01-15T10:56:32;98839.69;;;6.45;54.83
75794;BME280;64418;47.536;19.074;2024-01-15T10:58:58;98837.63;;;6.71;53.66
75794;BME280;64418;47.536;19.074;2024-01-15T11:01:25;98835.25;;;6.82;53.44
75794;BME280;64418;47.536;19.074;2024-01-15T11:03:51;98835.53;;;6.49;54.30
75794;BME280;64418;47.536;19.074;2024-01-15T11:06:21;98839.00;;;7.78;51.63
75794;BME280;64418;47.536;19.074;2024-01-15T11:08:49;98847.97;;;9.61;51.79
75794;BME280;64418;47.536;19.074;2024-01-15T11:11:17;98838.34;;;7.83;50.24
75794;BME280;64418;47.536;19.074;2024-01-15T11:13:47;98838.34;;;7.64;51.17
75794;BME280;64418;47.536;19.074;2024-01-15T11:16:14;98835.66;;;8.95;49.96
75794;BME280;64418;47.536;19.074;2024-01-15T11:18:41;98820.19;;;8.91;48.68
75794;BME280;64418;47.536;19.074;2024-01-15T11:21:23;98829.78;;;9.33;46.88
75794;BME280;64418;47.536;19.074;2024-01-15T11:23:54;98814.09;;;8.42;49.42
75794;BME280;64418;47.536;19.074;2024-01-15T11:26:28;98808.38;;;7.91;50.37
75794;BME280;64418;47.536;19.074;2024-01-15T11:28:56;98808.69;;;8.42;50.37
75794;BME280;64418;47.536;19.074;2024-01-15T11:31:27;98809.91;;;8.69;49.98
75794;BME280;64418;47.536;19.074;2024-01-15T11:33:53;98816.28;;;8.87;50.25
75794;BME280;64418;47.536;19.074;2024-01-15T11:36:20;98817.56;;;8.96;48.41
75794;BME280;64418;47.536;19.074;2024-01-15T11:38:46;98814.81;;;9.65;47.06
75794;BME280;64418;47.536;19.074;2024-01-15T11:41:14;98810.06;;;8.98;46.48
75794;BME280;64418;47.536;19.074;2024-01-15T11:43:40;98803.59;;;8.22;48.94
75794;BME280;64418;47.536;19.074;2024-01-15T11:46:12;98800.28;;;7.43;50.37
75794;BME280;64418;47.536;19.074;2024-01-15T11:48:43;98812.25;;;7.47;50.49
75794;BME280;64418;47.536;19.074;2024-01-15T11:51:11;98795.50;;;7.74;50.07
75794;BME280;64418;47.536;19.074;2024-01-15T11:53:43;98802.13;;;7.24;51.93
75794;BME280;64418;47.536;19.074;2024-01-15T11:56:15;98776.03;;;7.24;51.21
75794;BME280;64418;47.536;19.074;2024-01-15T11:58:41;98764.06;;;7.39;51.15
75794;BME280;64418;47.536;19.074;2024-01-15T12:01:10;98762.22;;;7.99;50.49
75794;BME280;64418;47.536;19.074;2024-01-15T12:03:36;98765.97;;;8.39;49.45
75794;BME280;64418;47.536;19.074;2024-01-15T12:06:05;98780.09;;;9.11;47.85
75794;BME280;64418;47.536;19.074;2024-01-15T12:08:35;98773.47;;;7.96;49.55
75794;BME280;64418;47.536;19.074;2024-01-15T12:11:07;98778.31;;;7.57;50.11
75794;BME280;64418;47.536;19.074;2024-01-15T12:13:35;98772.63;;;6.93;50.87
75794;BME280;64418;47.536;19.074;2024-01-15T12:16:03;98778.78;;;7.00;51.21
75794;BME280;64418;47.536;19.074;2024-01-15T12:18:31;98776.69;;;7.02;51.04
75794;BME280;64418;47.536;19.074;2024-01-15T12:20:58;98761.81;;;7.17;50.84
75794;BME280;64418;47.536;19.074;2024-01-15T12:23:25;98762.62;;;7.36;50.28
75794;BME280;64418;47.536;19.074;2024-01-15T12:25:51;98782.37;;;6.69;51.32
75794;BME280;64418;47.536;19.074;2024-01-15T12:28:17;98768.00;;;6.32;52.76
75794;BME280;64418;47.536;19.074;2024-01-15T12:30:47;98757.59;;;6.11;53.49
75794;BME280;64418;47.536;19.074;2024-01-15T12:33:13;98748.41;;;6.25;53.73
75794;BME280;64418;47.536;19.074;2024-01-15T12:35:40;98737.34;;;6.83;52.51
75794;BME280;64418;47.536;19.074;2024-01-15T12:38:06;98742.59;;;7.32;51.44
75794;BME280;64418;47.536;19.074;2024-01-15T12:40:32;98747.91;;;7.20;51.35
75794;BME280;64418;47.536;19.074;2024-01-15T12:42:59;98739.88;;;7.14;51.35
75794;BME280;64418;47.536;19.074;2024-01-15T12:45:25;98737.63;;;8.72;48.33
75794;BME280;64418;47.536;19.074;2024-01-15T12:47:53;98741.19;;;7.59;49.65